Time;durP1;ratioP1;P1;durP2;ratioP2;P2;SDS_P1;SDS_P2;PMS_P1;PMS_P2;Temp;Humidity;BMP_temperature;BMP_pressure;BME280_temperature;BME280_humidity;BME280_pressure;Samples;Min_cycle;Max_cycle;Signal;HPM_P1;HPM_P2
2022/09/27 00:00:16;;;;;;;;;;;;;;;20.95;47.32;94154.50;10458799;28;2509;-47
2022/09/27 00:05:16;;;;;;;;;;;;;;;20.93;47.22;94149.53;10454865;28;3517;-47
2022/09/27 00:10:16;;;;;;;;;;;;;;;20.93;47.00;94146.91;10457566;28;2577;-47
2022/09/27 00:15:17;;;;;;;;;;;;;;;20.90;46.92;94142.25;10452815;28;2494;-47
2022/09/27 00:20:19;;;;;;;;;;;;;;;20.91;46.93;94125.38;10453670;28;2220;-47
2022/09/27 00:25:19;;;;;;;;;;;;;;;20.91;47.13;94128.00;10448186;28;2542;-46
2022/09/27 00:30:19;;;;;;;;;;;;;;;20.89;46.89;94134.66;10453209;28;2858;-47
2022/09/27 00:35:20;;;;;;;;;;;;;;;20.88;46.96;94136.53;10451180;28;2483;-46
2022/09/27 00:40:23;;;;;;;;;;;;;;;20.86;46.99;94130.00;10456884;28;2183;-49
2022/09/27 00:45:28;;;;;;;;;;;;;;;20.85;47.04;94125.84;10459378;28;2415;-48
2022/09/27 00:50:29;;;;;;;;;;;;;;;20.82;46.84;94114.06;10457408;28;2415;-45
2022/09/27 00:55:32;;;;;;;;;;;;;;;20.83;46.89;94115.63;10463164;28;2133;-48
2022/09/27 01:00:44;;;;;;;;;;;;;;;20.82;46.88;94108.81;10489841;28;2467;-46
2022/09/27 01:05:44;;;;;;;;;;;;;;;20.82;46.75;94111.44;10459592;28;2459;-47
2022/09/27 01:10:48;;;;;;;;;;;;;;;20.80;46.56;94110.19;10463060;28;2138;-48
2022/09/27 01:16:00;;;;;;;;;;;;;;;20.81;46.56;94104.63;10463588;28;2163;-46
2022/09/27 01:21:18;;;;;;;;;;;;;;;20.79;46.60;94093.63;10487058;28;2429;-45
2022/09/27 01:26:30;;;;;;;;;;;;;;;20.78;46.72;94089.47;10451296;28;2537;-45
2022/09/27 01:31:43;;;;;;;;;;;;;;;20.77;46.36;94084.50;10482308;28;2168;-46
2022/09/27 01:36:59;;;;;;;;;;;;;;;20.76;46.64;94080.31;10452557;28;2442;-45
2022/09/27 01:41:59;;;;;;;;;;;;;;;20.75;46.41;94071.63;10454395;28;2541;-47
2022/09/27 01:47:03;;;;;;;;;;;;;;;20.74;46.34;94069.31;10455908;28;2590;-47
2022/09/27 01:52:05;;;;;;;;;;;;;;;20.74;46.69;94075.38;10488894;28;2528;-46
2022/09/27 01:57:05;;;;;;;;;;;;;;;20.73;45.91;94071.19;10493564;28;2258;-46
2022/09/27 02:02:07;;;;;;;;;;;;;;;20.72;46.11;94063.59;10476656;28;2642;-48
2022/09/27 02:07:11;;;;;;;;;;;;;;;20.72;46.42;94058.34;10463794;28;2484;-49
2022/09/27 02:12:12;;;;;;;;;;;;;;;20.71;46.20;94048.91;10461563;28;2648;-50
2022/09/27 02:17:32;;;;;;;;;;;;;;;20.71;46.24;94054.94;10463717;28;2226;-48
2022/09/27 02:22:58;;;;;;;;;;;;;;;20.69;46.01;94056.34;10463335;28;2136;-46
2022/09/27 02:28:05;;;;;;;;;;;;;;;20.70;46.03;94052.63;10447748;28;2464;-46
2022/09/27 02:33:05;;;;;;;;;;;;;;;20.69;46.11;94059.72;10498493;28;2279;-46
2022/09/27 02:38:06;;;;;;;;;;;;;;;20.68;46.11;94052.94;10453611;28;2263;-45
2022/09/27 02:43:06;;;;;;;;;;;;;;;20.68;46.20;94039.00;10489743;28;2496;-48
2022/09/27 02:48:13;;;;;;;;;;;;;;;20.67;46.17;94032.94;10455660;28;2547;-46
2022/09/27 02:53:13;;;;;;;;;;;;;;;20.68;45.97;94028.47;10457891;28;2494;-46
2022/09/27 02:58:32;;;;;;;;;;;;;;;20.67;45.94;94011.88;10462625;28;2784;-47
2022/09/27 03:03:37;;;;;;;;;;;;;;;20.65;45.93;94021.97;10454433;28;2486;-46
2022/09/27 03:08:37;;;;;;;;;;;;;;;20.65;45.77;94008.78;10495414;28;2119;-46
2022/09/27 03:13:38;;;;;;;;;;;;;;;20.64;45.80;94002.00;10462960;28;2437;-47
2022/09/27 03:18:38;;;;;;;;;;;;;;;20.64;45.85;94004.63;10497185;28;2320;-51
2022/09/27 03:23:39;;;;;;;;;;;;;;;20.64;45.57;93990.69;10452162;28;2551;-47
2022/09/27 03:28:39;;;;;;;;;;;;;;;20.63;45.66;93987.28;10462857;28;2486;-48
2022/09/27 03:33:39;;;;;;;;;;;;;;;20.61;45.68;93989.44;10464837;28;2437;-46
2022/09/27 03:38:39;;;;;;;;;;;;;;;20.67;45.41;93982.94;10485340;28;2420;-46
2022/09/27 03:43:40;;;;;;;;;;;;;;;20.72;45.63;93982.75;10464762;28;2179;-50
2022/09/27 03:48:41;;;;;;;;;;;;;;;20.74;45.81;93982.44;10462634;28;2462;-48
2022/09/27 03:53:41;;;;;;;;;;;;;;;20.72;45.26;93969.59;10457714;28;2463;-48
2022/09/27 03:58:42;;;;;;;;;;;;;;;20.72;44.87;93960.91;10458842;28;2470;-49
2022/09/27 04:03:42;;;;;;;;;;;;;;;20.72;44.88;93964.31;10487179;28;2464;-46
2022/09/27 04:08:42;;;;;;;;;;;;;;;20.74;44.60;93970.06;10451705;28;2147;-47
2022/09/27 04:13:43;;;;;;;;;;;;;;;20.75;44.08;93955.78;10461437;28;2511;-45
2022/09/27 04:18:43;;;;;;;;;;;;;;;20.78;44.28;93959.66;10458043;28;2438;-48
2022/09/27 04:23:45;;;;;;;;;;;;;;;20.82;44.13;93971.88;10455465;28;2350;-45
2022/09/27 04:28:45;;;;;;;;;;;;;;;20.85;43.90;93970.47;10452080;28;2421;-46
2022/09/27 04:33:46;;;;;;;;;;;;;;;20.89;43.75;93971.38;10454558;28;2422;-45
2022/09/27 04:38:47;;;;;;;;;;;;;;;20.92;44.08;93976.00;10446177;28;2183;-45
2022/09/27 04:43:47;;;;;;;;;;;;;;;20.94;45.09;93973.81;10455813;28;2415;-45
2022/09/27 04:48:48;;;;;;;;;;;;;;;20.93;44.79;93972.28;10449670;28;2179;-46
2022/09/27 04:53:48;;;;;;;;;;;;;;;20.88;44.65;93973.22;10450232;28;2522;-45
2022/09/27 04:58:48;;;;;;;;;;;;;;;20.86;44.41;93983.31;10450314;28;2464;-49
2022/09/27 05:03:49;;;;;;;;;;;;;;;20.83;44.00;93991.09;10460902;28;2444;-45
2022/09/27 05:08:53;;;;;;;;;;;;;;;20.83;44.27;93999.00;10467195;28;2458;-46
2022/09/27 05:13:53;;;;;;;;;;;;;;;20.83;44.28;93991.09;10464481;28;2249;-47
2022/09/27 05:18:53;;;;;;;;;;;;;;;20.83;44.36;93999.75;10455045;28;2172;-48
2022/09/27 05:23:54;;;;;;;;;;;;;;;20.87;44.27;94010.44;10460849;28;2170;-46
2022/09/27 05:28:54;;;;;;;;;;;;;;;20.88;44.48;94012.75;10444809;28;2553;-47
2022/09/27 05:33:54;;;;;;;;;;;;;;;20.88;43.84;94010.09;10455526;28;2745;-47
2022/09/27 05:38:55;;;;;;;;;;;;;;;20.94;43.79;94014.09;10461243;28;2331;-47
2022/09/27 05:44:00;;;;;;;;;;;;;;;20.98;43.51;94014.22;10458024;28;2644;-50
2022/09/27 05:49:00;;;;;;;;;;;;;;;21.01;43.41;94032.06;10457410;28;2772;-46
2022/09/27 05:54:03;;;;;;;;;;;;;;;21.03;43.16;94033.31;10451402;28;2632;-47
2022/09/27 05:59:04;;;;;;;;;;;;;;;21.03;43.57;94030.69;10464577;28;2688;-46
2022/09/27 06:04:04;;;;;;;;;;;;;;;21.04;43.02;94032.22;10461915;28;2295;-45
2022/09/27 06:09:04;;;;;;;;;;;;;;;21.07;43.03;94044.00;10473300;28;2680;-46
2022/09/27 06:14:05;;;;;;;;;;;;;;;21.08;42.94;94050.03;10506230;28;2591;-45
2022/09/27 06:19:05;;;;;;;;;;;;;;;21.09;42.86;94047.06;10470075;28;2562;-48
2022/09/27 06:24:06;;;;;;;;;;;;;;;21.09;43.05;94060.25;10473089;28;2660;-46
2022/09/27 06:29:06;;;;;;;;;;;;;;;21.11;43.22;94067.81;10471615;28;2315;-49
2022/09/27 06:34:07;;;;;;;;;;;;;;;21.11;42.97;94084.41;10472769;28;2595;-46
2022/09/27 06:39:08;;;;;;;;;;;;;;;21.11;43.21;94079.16;10476999;28;2276;-46
2022/09/27 06:44:08;;;;;;;;;;;;;;;21.13;42.78;94086.72;10475719;28;2603;-47
2022/09/27 06:49:08;;;;;;;;;;;;;;;21.13;42.95;94089.38;10476597;28;2578;-49
2022/09/27 06:54:08;;;;;;;;;;;;;;;21.13;42.83;94094.63;10467303;28;2649;-45
2022/09/27 07:04:28;;;;;;;;;;;;;;;21.19;43.63;94109.97;10469668;28;2319;-46
2022/09/27 07:09:28;;;;;;;;;;;;;;;21.19;43.14;94119.72;10469537;28;2753;-46
2022/09/27 07:14:29;;;;;;;;;;;;;;;21.23;43.67;94118.78;10470017;28;2689;-46
2022/09/27 07:19:30;;;;;;;;;;;;;;;21.24;43.69;94119.56;10472288;28;2670;-45
2022/09/27 07:24:30;;;;;;;;;;;;;;;21.23;43.57;94124.03;10462555;28;2519;-48
2022/09/27 07:29:30;;;;;;;;;;;;;;;21.27;44.10;94119.69;10469193;28;2289;-45
2022/09/27 07:34:34;;;;;;;;;;;;;;;21.30;44.14;94124.34;10460642;28;2634;-47
2022/09/27 07:39:34;;;;;;;;;;;;;;;21.37;43.89;94123.84;10461176;28;2743;-46
2022/09/27 07:44:35;;;;;;;;;;;;;;;21.37;43.85;94126.50;10461749;28;2292;-46
2022/09/27 07:49:35;;;;;;;;;;;;;;;21.33;43.93;94128.97;10464123;28;2653;-46
2022/09/27 07:54:36;;;;;;;;;;;;;;;21.28;44.30;94139.69;10460145;28;2554;-51
2022/09/27 07:59:36;;;;;;;;;;;;;;;21.29;44.14;94127.28;10467512;28;2573;-45
2022/09/27 08:04:36;;;;;;;;;;;;;;;21.29;44.24;94137.84;10469241;28;2452;-51
2022/09/27 08:09:36;;;;;;;;;;;;;;;21.20;44.33;94161.59;10463670;28;2623;-46
2022/09/27 08:14:37;;;;;;;;;;;;;;;21.23;44.30;94197.06;10462485;28;2648;-46
2022/09/27 08:19:37;;;;;;;;;;;;;;;21.21;43.94;94207.13;10465667;28;2315;-48
2022/09/27 08:24:38;;;;;;;;;;;;;;;21.23;44.14;94202.31;10464186;28;2735;-48
2022/09/27 08:29:40;;;;;;;;;;;;;;;21.19;44.10;94207.44;10459522;28;2600;-46
2022/09/27 08:34:40;;;;;;;;;;;;;;;21.18;44.03;94202.50;10459651;28;2751;-49
2022/09/27 08:39:41;;;;;;;;;;;;;;;21.17;44.15;94224.66;10466432;28;2624;-47
2022/09/27 08:44:47;;;;;;;;;;;;;;;21.15;44.13;94218.94;10463028;28;2617;-47
2022/09/27 08:49:49;;;;;;;;;;;;;;;21.13;43.99;94213.19;10487259;28;2674;-45
2022/09/27 08:54:49;;;;;;;;;;;;;;;21.12;44.06;94219.56;10486040;28;2565;-47
2022/09/27 08:59:53;;;;;;;;;;;;;;;21.11;44.28;94213.53;10463036;28;2323;-48
2022/09/27 09:04:55;;;;;;;;;;;;;;;21.11;44.11;94223.28;10487132;28;2601;-46
2022/09/27 09:09:55;;;;;;;;;;;;;;;21.11;44.26;94228.53;10486136;28;2662;-49
2022/09/27 09:14:55;;;;;;;;;;;;;;;21.10;44.41;94227.00;10458698;28;2549;-45
2022/09/27 09:19:59;;;;;;;;;;;;;;;21.08;44.45;94226.56;10457950;28;2288;-50
2022/09/27 09:25:15;;;;;;;;;;;;;;;21.07;44.29;94231.03;10484513;28;2552;-45
2022/09/27 09:30:25;;;;;;;;;;;;;;;21.05;44.33;94218.19;10458058;28;2331;-48
2022/09/27 09:35:27;;;;;;;;;;;;;;;21.10;44.12;94219.09;10454553;28;2262;-45
2022/09/27 09:40:28;;;;;;;;;;;;;;;21.10;43.89;94225.16;10456247;28;2264;-47
2022/09/27 09:45:32;;;;;;;;;;;;;;;21.12;43.83;94227.47;10483414;28;2565;-45
2022/09/27 09:50:42;;;;;;;;;;;;;;;21.10;43.98;94234.91;10488921;28;2416;-48
2022/09/27 09:55:42;;;;;;;;;;;;;;;21.05;44.12;94230.56;10455474;28;2659;-47
2022/09/27 10:00:43;;;;;;;;;;;;;;;21.04;44.17;94236.94;10482485;28;2592;-46
2022/09/27 10:05:43;;;;;;;;;;;;;;;21.03;44.23;94244.06;10483827;28;2599;-48
2022/09/27 10:10:44;;;;;;;;;;;;;;;20.98;44.09;94244.19;10445252;28;2645;-49
2022/09/27 10:15:47;;;;;;;;;;;;;;;20.99;43.67;94251.03;10449786;28;2627;-45
2022/09/27 10:20:49;;;;;;;;;;;;;;;20.91;44.17;94251.03;10489195;28;2637;-47
2022/09/27 10:25:50;;;;;;;;;;;;;;;20.94;44.38;94255.66;10465844;28;2655;-45
2022/09/27 10:30:54;;;;;;;;;;;;;;;20.84;44.49;94248.84;10457115;28;2527;-46
2022/09/27 10:35:54;;;;;;;;;;;;;;;20.85;44.34;94262.81;10454382;28;2584;-47
2022/09/27 10:40:55;;;;;;;;;;;;;;;20.89;43.97;94269.78;10447089;28;2655;-49
2022/09/27 10:46:02;;;;;;;;;;;;;;;20.83;44.42;94291.31;10457717;28;2610;-47
2022/09/27 10:51:03;;;;;;;;;;;;;;;20.79;44.16;94287.75;10447674;28;2702;-47
2022/09/27 10:56:04;;;;;;;;;;;;;;;20.79;44.34;94279.84;10459636;28;2377;-47
2022/09/27 11:01:05;;;;;;;;;;;;;;;20.80;44.29;94268.22;10503882;28;2669;-46
2022/09/27 11:06:18;;;;;;;;;;;;;;;20.82;44.24;94272.09;10458191;28;2629;-48
2022/09/27 11:11:20;;;;;;;;;;;;;;;20.87;44.15;94264.03;10460065;28;2719;-45
2022/09/27 11:16:23;;;;;;;;;;;;;;;20.91;43.95;94249.16;10464699;28;2619;-46
2022/09/27 11:21:52;;;;;;;;;;;;;;;20.89;44.42;94253.19;10448290;28;2619;-48
2022/09/27 11:26:53;;;;;;;;;;;;;;;20.97;43.59;94257.69;10458905;28;2611;-49
2022/09/27 11:31:54;;;;;;;;;;;;;;;20.86;44.28;94273.00;10462693;28;2351;-51
2022/09/27 11:37:04;;;;;;;;;;;;;;;20.85;44.02;94265.44;10463383;28;2660;-47
2022/09/27 11:42:23;;;;;;;;;;;;;;;20.85;44.02;94268.84;10491840;28;2616;-47
2022/09/27 11:47:42;;;;;;;;;;;;;;;20.80;44.46;94274.25;10465887;28;2374;-49
2022/09/27 11:52:54;;;;;;;;;;;;;;;20.81;43.87;94265.25;10459499;28;2533;-51
2022/09/27 11:58:17;;;;;;;;;;;;;;;20.79;44.24;94246.34;10465464;28;2666;-47
2022/09/27 12:03:19;;;;;;;;;;;;;;;20.78;44.19;94255.34;10454164;28;2621;-49
2022/09/27 12:08:52;;;;;;;;;;;;;;;20.73;44.20;94257.38;10445402;28;2574;-46
2022/09/27 12:13:58;;;;;;;;;;;;;;;20.74;44.36;94262.34;10454603;28;2720;-46
2022/09/27 12:18:59;;;;;;;;;;;;;;;20.73;44.20;94294.25;10471195;28;2566;-45
2022/09/27 12:23:59;;;;;;;;;;;;;;;20.70;44.15;94263.25;10459404;28;2701;-46
2022/09/27 12:29:19;;;;;;;;;;;;;;;20.70;44.35;94264.03;10447988;28;2537;-47
2022/09/27 12:34:26;;;;;;;;;;;;;;;20.72;44.31;94261.09;10480990;28;2319;-45
2022/09/27 12:39:36;;;;;;;;;;;;;;;20.76;44.12;94256.75;10494717;28;2657;-46
2022/09/27 12:44:38;;;;;;;;;;;;;;;20.84;44.05;94243.59;10503832;28;2608;-49
2022/09/27 12:49:52;;;;;;;;;;;;;;;20.78;44.42;94244.03;10504878;28;2631;-44
2022/09/27 12:55:02;;;;;;;;;;;;;;;20.73;44.31;94242.34;10510036;28;2753;-47
2022/09/27 13:00:22;;;;;;;;;;;;;;;20.76;44.46;94236.47;10517449;28;2622;-49
2022/09/27 13:05:22;;;;;;;;;;;;;;;20.76;44.52;94235.69;10504763;28;2712;-47
2022/09/27 13:10:25;;;;;;;;;;;;;;;20.70;44.74;94221.91;10510644;28;2724;-45
2022/09/27 13:15:27;;;;;;;;;;;;;;;20.72;44.57;94229.50;10486888;28;2589;-44
2022/09/27 13:20:31;;;;;;;;;;;;;;;20.79;44.55;94233.19;10469543;28;2597;-45
2022/09/27 13:25:51;;;;;;;;;;;;;;;20.80;44.24;94215.53;10515044;28;2532;-48
2022/09/27 13:30:51;;;;;;;;;;;;;;;20.72;44.37;94219.75;10490446;28;2613;-44
2022/09/27 13:36:10;;;;;;;;;;;;;;;20.74;44.35;94230.72;10498802;28;2621;-46
2022/09/27 13:41:16;;;;;;;;;;;;;;;20.70;44.44;94221.13;10508408;28;2282;-46
2022/09/27 13:46:17;;;;;;;;;;;;;;;20.70;44.47;94224.53;10499228;28;2620;-46
2022/09/27 13:51:21;;;;;;;;;;;;;;;20.63;44.05;94226.84;10518539;28;2919;-47
2022/09/27 13:56:45;;;;;;;;;;;;;;;20.63;44.37;94240.00;10495723;28;2608;-47
2022/09/27 14:01:50;;;;;;;;;;;;;;;20.63;44.21;94234.00;10498143;28;2573;-45
2022/09/27 14:06:52;;;;;;;;;;;;;;;20.60;44.40;94224.06;10488612;28;2747;-45
2022/09/27 14:11:53;;;;;;;;;;;;;;;20.61;44.10;94228.28;10514589;28;2612;-46
2022/09/27 14:16:54;;;;;;;;;;;;;;;20.61;44.06;94238.81;10475476;28;2621;-51
2022/09/27 14:21:54;;;;;;;;;;;;;;;20.58;43.80;94244.66;10501705;28;2738;-48
2022/09/27 14:27:10;;;;;;;;;;;;;;;20.61;43.84;94251.97;10513025;28;2613;-46
2022/09/27 14:32:15;;;;;;;;;;;;;;;20.62;44.19;94264.81;10509996;28;2766;-46
2022/09/27 14:37:22;;;;;;;;;;;;;;;20.54;43.39;94257.69;10504551;28;2746;-46
2022/09/27 14:42:25;;;;;;;;;;;;;;;20.58;43.57;94261.25;10523760;28;2640;-46
2022/09/27 14:47:26;;;;;;;;;;;;;;;20.58;44.08;94265.72;10520666;28;3117;-46
2022/09/27 14:52:31;;;;;;;;;;;;;;;20.56;43.81;94265.25;10503514;28;2342;-47
2022/09/27 14:57:33;;;;;;;;;;;;;;;20.51;44.26;94260.91;10513368;28;2624;-47
2022/09/27 15:02:33;;;;;;;;;;;;;;;20.50;44.05;94264.66;10490357;28;2644;-47
2022/09/27 15:07:33;;;;;;;;;;;;;;;20.48;44.01;94261.56;10504491;28;2794;-45
2022/09/27 15:12:34;;;;;;;;;;;;;;;20.47;44.30;94257.34;10497205;28;2514;-45
2022/09/27 15:17:40;;;;;;;;;;;;;;;20.49;43.86;94252.56;10510424;28;2737;-45
2022/09/27 15:22:42;;;;;;;;;;;;;;;20.46;43.85;94252.41;10500474;28;2605;-46
2022/09/27 15:27:46;;;;;;;;;;;;;;;20.46;43.93;94253.19;10523755;28;2383;-47
2022/09/27 15:32:47;;;;;;;;;;;;;;;20.44;44.31;94250.09;10514367;28;2597;-46
2022/09/27 15:37:48;;;;;;;;;;;;;;;20.43;44.22;94240.63;10523946;28;2633;-47
2022/09/27 15:42:56;;;;;;;;;;;;;;;20.43;43.55;94238.00;10520159;28;2596;-50
2022/09/27 15:48:04;;;;;;;;;;;;;;;20.43;43.78;94237.22;10504158;28;2616;-49
2022/09/27 15:53:05;;;;;;;;;;;;;;;20.41;43.94;94220.97;10526580;28;2629;-47
2022/09/27 15:58:07;;;;;;;;;;;;;;;20.39;44.04;94247.59;10509994;28;2817;-47
2022/09/27 16:03:08;;;;;;;;;;;;;;;20.38;43.85;94261.81;10500832;28;2590;-47
2022/09/27 16:08:09;;;;;;;;;;;;;;;20.36;44.03;94292.19;10502840;28;2688;-46
2022/09/27 16:13:09;;;;;;;;;;;;;;;20.35;44.16;94280.88;10516765;28;2742;-48
2022/09/27 16:18:09;;;;;;;;;;;;;;;20.36;44.19;94284.28;10506379;28;2979;-48
2022/09/27 16:23:10;;;;;;;;;;;;;;;20.36;43.99;94290.31;10500754;28;2691;-46
2022/09/27 16:28:10;;;;;;;;;;;;;;;20.36;44.09;94285.03;10480357;28;2725;-46
2022/09/27 16:33:10;;;;;;;;;;;;;;;20.36;44.72;94273.75;10495552;28;2740;-45
2022/09/27 16:38:10;;;;;;;;;;;;;;;20.38;44.89;94272.34;10517681;28;2414;-46
2022/09/27 16:43:11;;;;;;;;;;;;;;;20.37;45.31;94270.81;10500776;28;2786;-47
2022/09/27 16:48:11;;;;;;;;;;;;;;;20.40;45.80;94280.75;10509030;28;2770;-47
2022/09/27 16:53:12;;;;;;;;;;;;;;;20.42;45.90;94264.63;10497306;28;2454;-46
2022/09/27 16:58:12;;;;;;;;;;;;;;;20.46;45.33;94258.44;10500908;28;2689;-47
2022/09/27 17:03:13;;;;;;;;;;;;;;;20.47;45.59;94273.16;10505521;28;2477;-46
2022/09/27 17:08:13;;;;;;;;;;;;;;;20.46;44.88;94295.31;10502026;28;2775;-43
2022/09/27 17:13:13;;;;;;;;;;;;;;;20.46;45.26;94305.81;10495140;28;2683;-46
2022/09/27 17:18:15;;;;;;;;;;;;;;;20.49;45.00;94299.94;10494745;28;2454;-51
2022/09/27 17:23:15;;;;;;;;;;;;;;;20.49;44.97;94305.19;10469334;28;2759;-46
2022/09/27 17:28:17;;;;;;;;;;;;;;;20.50;45.10;94304.13;10491964;28;2826;-49
2022/09/27 17:33:20;;;;;;;;;;;;;;;20.49;45.21;94310.47;10512497;28;2732;-49
2022/09/27 17:38:21;;;;;;;;;;;;;;;20.48;45.13;94298.41;10514782;28;2753;-48
2022/09/27 17:43:24;;;;;;;;;;;;;;;20.50;45.09;94309.41;10523772;28;2497;-47
2022/09/27 17:53:43;;;;;;;;;;;;;;;20.49;44.82;94299.16;10505471;28;2779;-47
2022/09/27 17:58:53;;;;;;;;;;;;;;;20.49;45.08;94309.69;10499594;28;2740;-45
2022/09/27 18:03:53;;;;;;;;;;;;;;;20.46;45.34;94319.00;10493602;28;2564;-49
2022/09/27 18:08:54;;;;;;;;;;;;;;;20.45;45.43;94320.06;10506427;28;2418;-46
2022/09/27 18:13:57;;;;;;;;;;;;;;;20.43;45.57;94326.69;10500485;28;2745;-46
2022/09/27 18:18:58;;;;;;;;;;;;;;;20.40;45.79;94322.06;10472431;28;2747;-49
2022/09/27 18:23:59;;;;;;;;;;;;;;;20.40;45.98;94322.84;10482597;28;2779;-49
2022/09/27 18:29:00;;;;;;;;;;;;;;;20.40;45.89;94328.09;10503026;28;2880;-48
2022/09/27 18:34:04;;;;;;;;;;;;;;;20.39;45.81;94326.53;10496460;28;2921;-49
2022/09/27 18:39:05;;;;;;;;;;;;;;;20.37;46.04;94336.59;10495168;28;2459;-48
2022/09/27 18:44:05;;;;;;;;;;;;;;;20.37;46.20;94348.97;10490846;28;2736;-45
2022/09/27 18:49:06;;;;;;;;;;;;;;;20.35;45.89;94351.91;10502464;28;2760;-47
2022/09/27 18:54:09;;;;;;;;;;;;;;;20.34;46.28;94349.59;10490776;28;2695;-46
2022/09/27 18:59:09;;;;;;;;;;;;;;;20.32;46.23;94347.25;10514571;28;2479;-46
2022/09/27 19:04:10;;;;;;;;;;;;;;;20.32;46.03;94357.03;10500844;28;2764;-46
2022/09/27 19:09:10;;;;;;;;;;;;;;;20.32;46.25;94357.03;10481088;28;2743;-47
2022/09/27 19:14:13;;;;;;;;;;;;;;;20.30;45.97;94359.94;10498144;28;2783;-45
2022/09/27 19:19:14;;;;;;;;;;;;;;;20.29;46.34;94355.78;10506712;28;2482;-47
2022/09/27 19:24:15;;;;;;;;;;;;;;;20.28;46.26;94360.25;10489516;28;2818;-45
2022/09/27 19:29:15;;;;;;;;;;;;;;;20.26;46.27;94359.78;10500657;28;2434;-43
2022/09/27 19:34:15;;;;;;;;;;;;;;;20.26;46.12;94357.16;10507680;28;2798;-47
2022/09/27 19:39:16;;;;;;;;;;;;;;;20.25;46.54;94357.47;10485138;28;2829;-41
2022/09/27 19:44:16;;;;;;;;;;;;;;;20.23;46.44;94370.94;10510210;28;2769;-49
2022/09/27 19:49:17;;;;;;;;;;;;;;;20.22;46.44;94347.53;10503331;28;2537;-46
2022/09/27 19:54:19;;;;;;;;;;;;;;;20.22;46.62;94358.06;10504363;28;2773;-50
2022/09/27 19:59:19;;;;;;;;;;;;;;;20.21;46.58;94357.31;10501405;28;2704;-47
2022/09/27 20:04:19;;;;;;;;;;;;;;;20.19;46.63;94354.19;10499748;28;2777;-50
2022/09/27 20:09:20;;;;;;;;;;;;;;;20.19;46.30;94359.47;10500708;28;2807;-46
2022/09/27 20:14:20;;;;;;;;;;;;;;;20.18;46.62;94354.47;10497783;28;2760;-51
2022/09/27 20:19:20;;;;;;;;;;;;;;;20.16;46.64;94346.88;10506070;28;2792;-49
2022/09/27 20:24:21;;;;;;;;;;;;;;;20.16;46.31;94348.72;10507831;28;3167;-48
2022/09/27 20:29:21;;;;;;;;;;;;;;;20.15;46.63;94341.94;10485966;28;2767;-47
2022/09/27 20:34:22;;;;;;;;;;;;;;;20.13;46.43;94336.94;10499004;28;2748;-50
2022/09/27 20:39:23;;;;;;;;;;;;;;;20.12;46.19;94332.00;10484601;28;2428;-46
2022/09/27 20:44:23;;;;;;;;;;;;;;;20.10;46.30;94323.63;10497146;28;2786;-45
2022/09/27 20:49:24;;;;;;;;;;;;;;;20.09;46.25;94319.47;10485699;28;2840;-47
2022/09/27 20:54:25;;;;;;;;;;;;;;;20.07;46.04;94319.75;10482922;28;2719;-45
2022/09/27 20:59:26;;;;;;;;;;;;;;;20.06;46.04;94322.69;10485203;28;2740;-46
2022/09/27 21:04:29;;;;;;;;;;;;;;;20.05;46.27;94315.91;10497304;28;2723;-46
2022/09/27 21:09:29;;;;;;;;;;;;;;;20.04;46.19;94314.31;10500389;28;2727;-45
2022/09/27 21:14:29;;;;;;;;;;;;;;;20.02;46.11;94311.22;10502475;28;2355;-48
2022/09/27 21:19:29;;;;;;;;;;;;;;;20.02;45.82;94313.84;10482392;28;2691;-46
2022/09/27 21:24:30;;;;;;;;;;;;;;;20.02;45.96;94316.50;10500806;28;2632;-45
2022/09/27 21:29:30;;;;;;;;;;;;;;;20.01;45.92;94304.44;10502611;28;2517;-48
2022/09/27 21:34:31;;;;;;;;;;;;;;;19.99;45.95;94307.34;10495224;28;2418;-46
2022/09/27 21:39:31;;;;;;;;;;;;;;;20.00;45.63;94310.75;10501800;28;2699;-47
2022/09/27 21:44:31;;;;;;;;;;;;;;;19.99;45.59;94319.75;10503040;28;2502;-48
2022/09/27 21:49:32;;;;;;;;;;;;;;;19.96;45.56;94328.22;10505368;28;2418;-49
2022/09/27 21:54:33;;;;;;;;;;;;;;;19.96;45.68;94307.97;10503591;28;2680;-48
2022/09/27 21:59:33;;;;;;;;;;;;;;;19.97;45.51;94345.56;10502207;28;2736;-48
2022/09/27 22:04:33;;;;;;;;;;;;;;;19.96;45.94;94347.41;10503906;28;2728;-46
2022/09/27 22:09:33;;;;;;;;;;;;;;;19.95;45.43;94363.47;10501196;28;2418;-47
2022/09/27 22:14:34;;;;;;;;;;;;;;;19.92;45.52;94348.31;10497180;28;2634;-47
2022/09/27 22:19:34;;;;;;;;;;;;;;;19.92;45.49;94345.69;10505487;28;2771;-45
2022/09/27 22:24:35;;;;;;;;;;;;;;;19.92;45.48;94343.06;10501689;28;2832;-46
2022/09/27 22:29:35;;;;;;;;;;;;;;;19.91;45.56;94334.38;10513689;28;2452;-46
2022/09/27 22:34:36;;;;;;;;;;;;;;;19.90;45.63;94324.97;10502511;28;2766;-48
2022/09/27 22:39:37;;;;;;;;;;;;;;;19.88;45.50;94315.81;10509418;28;2832;-45
2022/09/27 22:44:47;;;;;;;;;;;;;;;19.88;45.49;94321.06;10485698;28;2713;-45
2022/09/27 22:49:48;;;;;;;;;;;;;;;19.87;45.91;94311.63;10462920;28;2685;-46
2022/09/27 22:54:49;;;;;;;;;;;;;;;19.86;45.49;94294.31;10490995;28;2786;-45
2022/09/27 22:59:50;;;;;;;;;;;;;;;19.87;45.71;94287.94;10494608;28;2501;-49
2022/09/27 23:04:50;;;;;;;;;;;;;;;19.84;45.80;94299.88;10483327;28;2824;-48
2022/09/27 23:09:51;;;;;;;;;;;;;;;19.86;45.59;94304.81;10479271;28;2756;-46
2022/09/27 23:14:51;;;;;;;;;;;;;;;19.82;45.58;94290.72;10494679;28;2636;-48
2022/09/27 23:19:51;;;;;;;;;;;;;;;19.83;45.57;94287.00;10493018;28;2480;-47
2022/09/27 23:24:52;;;;;;;;;;;;;;;19.83;45.61;94292.28;10501496;28;2744;-45
2022/09/27 23:29:52;;;;;;;;;;;;;;;19.81;45.42;94278.66;10496676;28;2740;-48
2022/09/27 23:34:52;;;;;;;;;;;;;;;19.82;45.52;94269.69;10475520;28;2776;-45
2022/09/27 23:39:53;;;;;;;;;;;;;;;19.80;45.82;94261.34;10497882;28;2752;-47
2022/09/27 23:44:54;;;;;;;;;;;;;;;19.77;45.49;94256.69;10496179;28;2440;-46
2022/09/27 23:49:57;;;;;;;;;;;;;;;19.79;45.56;94254.50;10480540;28;2430;-48
2022/09/27 23:54:57;;;;;;;;;;;;;;;19.74;45.73;94252.03;10492557;28;2789;-47
2022/09/27 23:59:57;;;;;;;;;;;;;;;19.74;45.35;94239.66;10497720;28;2735;-46
